Latest Weather Observations for Mawson*

IDT60801

Issued at 7:01 pm EST Thursday 4 June 2020 (issued every 10 minutes, with the page automatically refreshed every 10 minutes)

About weather observations | Map of weather stations | Latest weather observations for ANT | Other Formats
Station Details ID: 300001 Name: MAWSON Lat: -67.60 Lon: 62.88 Height: 9.9 m
Data from the previous 72 hours. | See also: Recent months at Mawson*
Date/Time
EST
Temp
°C
App
Temp
°C
Dew
Point
°C
Rel
Hum
%
Delta-T
°C
Wind Press
QNH
hPa
Press
MSL
hPa
Rain since
9am
mm
Dir  Spd
km/h
Gust
km/h
Spd
kts
Gust
kts
04/07:00pm -13.0 -28.7 -25.5 34 - SE 63 83 34 45 979.5 - -
04/06:30pm -12.8 -28.9 -25.3 34 - SE 65 83 35 45 979.7 - -
04/06:07pm -12.9 -27.8 -24.8 36 - SE 59 78 32 42 979.8 - -
04/06:00pm -12.8 -28.1 -25.3 34 - SE 61 74 33 40 979.6 - -
04/05:30pm -12.9 -29.0 -24.5 37 - SE 65 83 35 45 979.8 - -
04/05:11pm -13.1 -28.0 -24.7 37 - ESE 59 80 32 43 979.6 - -
04/05:00pm -13.0 -29.1 -24.9 36 - SE 65 76 35 41 979.6 - -
04/04:30pm -12.9 -29.9 -25.4 34 - SE 70 89 38 48 979.3 - -
04/04:00pm -12.6 -30.8 -25.8 32 - SE 76 95 41 51 979.0 979.2 -
04/03:30pm -12.5 -29.9 -25.7 32 - SE 72 91 39 49 979.5 - -
04/03:00pm -12.5 -29.9 -26.1 31 - SE 72 91 39 49 979.3 - -
04/02:39pm -12.9 -29.0 -25.7 33 - SE 65 87 35 47 979.5 - -
04/02:30pm -13.0 -29.5 -25.5 34 - SE 67 83 36 45 979.4 - -
04/02:02pm -13.2 -29.7 -24.8 37 - SE 67 85 36 46 979.4 - -
04/02:00pm -13.7 -30.5 -24.3 40 - SE 69 85 37 46 979.4 - -
04/01:30pm -13.7 -31.5 -24.9 38 - SE 74 96 40 52 979.0 - -
04/01:00pm -13.6 -30.4 -25.1 37 - ESE 69 96 37 52 979.1 979.3 -
04/12:49pm -14.0 -29.3 -24.6 40 - ESE 61 87 33 47 979.2 - -
04/12:47pm -14.2 -28.8 -24.8 40 - E 57 72 31 39 979.8 - -
04/12:30pm -13.5 -31.7 -25.0 37 - SE 76 98 41 53 979.1 - -
04/12:14pm -13.4 -32.3 -24.9 37 - SE 80 98 43 53 978.9 - -
04/12:00pm -13.3 -32.2 -24.8 37 - SE 80 95 43 51 978.5 - -
04/11:36am -13.5 -31.6 -23.9 41 - SE 76 95 41 51 978.6 - -
04/11:30am -13.6 -32.5 -23.5 43 - SE 80 95 43 51 978.9 - -
04/11:00am -13.4 -31.5 -23.5 42 - ESE 76 96 41 52 979.0 - -
04/10:43am -14.1 -32.2 -21.8 52 - ESE 76 95 41 51 979.3 - -
04/10:30am -14.1 -31.8 -20.7 57 - SE 74 91 40 49 979.0 - -
04/10:02am -14.1 -31.4 -21.6 53 - SE 72 91 39 49 978.9 - -
04/10:00am -14.1 -31.0 -21.8 52 - SE 70 85 38 46 979.0 979.2 -
04/09:30am -14.0 -32.9 -23.1 46 - SE 80 91 43 49 978.7 - -
04/09:00am -14.3 -32.4 -22.9 48 - SE 76 106 41 57 978.6 - -
04/08:30am -14.8 -33.3 -21.8 55 - SE 78 98 42 53 979.0 - -
04/08:27am -14.6 -32.7 -22.5 51 - SE 76 98 41 53 978.5 - -
04/08:00am -14.8 -34.0 -22.2 53 - SE 82 96 44 52 978.7 - -
04/07:37am -14.6 -33.1 -23.6 46 - SE 78 96 42 52 978.4 - -
04/07:30am -14.6 -33.1 -23.9 45 - SE 78 95 42 51 978.5 - -
04/07:00am -14.3 -32.8 -23.6 45 - SE 78 104 42 56 978.4 978.6 -
04/06:51am -14.7 -34.0 -23.2 48 - SE 82 104 44 56 978.1 - -
04/06:30am -14.7 -34.5 -23.5 47 - SE 85 100 46 54 978.0 - -
04/06:00am -14.9 -36.6 -22.5 52 - SE 95 115 51 62 977.9 - -
04/05:30am -14.9 -36.2 -21.1 59 - SE 93 126 50 68 978.2 - -
04/05:24am -14.8 -36.4 -19.7 66 - SE 95 119 51 64 977.6 - -
04/05:23am -14.8 -35.7 -19.4 68 - SE 91 107 49 58 978.0 - -
04/05:21am -15.4 -32.1 -19.4 71 - ESE 69 93 37 50 978.5 - -
04/05:19am -14.8 -37.0 -19.0 70 - ESE 98 119 53 64 977.9 - -
04/05:12am -14.9 -32.1 -19.1 70 - ESE 72 115 39 62 978.0 - -
04/05:07am -15.6 -31.9 -18.7 77 - ESE 67 89 36 48 978.7 - -
04/05:06am -15.6 -31.5 -18.8 76 - ESE 65 80 35 43 978.5 - -
04/05:00am -14.6 -34.8 -21.6 55 - SE 87 109 47 59 977.7 - -
04/04:57am -14.9 -35.8 -20.9 60 - SE 91 109 49 59 977.9 - -
04/04:56am -14.7 -36.0 -21.1 58 - SE 93 109 50 59 977.8 - -
04/04:50am -15.0 -30.6 -21.0 60 - ESE 63 98 34 53 978.7 - -
04/04:49am -15.1 -29.4 -21.9 56 - ESE 56 80 30 43 979.0 - -
04/04:48am -14.9 -28.1 -23.0 50 - ESE 50 65 27 35 979.1 - -
04/04:45am -14.3 -31.7 -23.8 44 - SE 72 91 39 49 979.1 - -
04/04:42am -13.9 -36.2 -22.3 49 - SE 98 120 53 65 977.4 - -
04/04:41am -14.2 -31.1 -21.9 52 - ESE 70 107 38 58 977.5 - -
04/04:39am -15.1 -29.5 -20.7 62 - ESE 57 78 31 42 978.9 - -
04/04:32am -14.8 -35.7 -19.9 65 - SE 91 111 49 60 978.3 - -
04/04:30am -15.4 -37.5 -18.5 77 - SE 98 111 53 60 978.1 - -
04/04:00am -15.0 -33.0 -19.4 69 - SE 76 102 41 55 978.5 978.7 -
04/03:31am -14.8 -33.6 -19.5 67 - SE 80 98 43 53 978.2 - -
04/03:30am -14.8 -34.1 -19.5 67 - SE 83 98 45 53 978.3 - -
04/03:29am -14.6 -34.7 -20.4 61 - SE 87 98 47 53 977.8 - -
04/03:27am -14.2 -29.4 -20.6 58 - SE 61 87 33 47 978.1 - -
04/03:24am -14.8 -30.0 -19.4 68 - SE 61 72 33 39 978.4 - -
04/03:00am -15.5 -35.2 -18.4 78 - SE 85 106 46 57 978.0 - -
04/02:30am -15.0 -33.8 -21.2 59 - SE 80 107 43 58 977.9 - -
04/02:04am -14.6 -32.3 -21.0 58 - SE 74 98 40 53 977.3 - -
04/02:00am -14.4 -32.1 -22.5 50 - SE 74 89 40 48 977.5 - -
04/01:30am -14.5 -31.8 -22.1 52 - SE 72 93 39 50 976.9 - -
04/01:00am -14.9 -33.3 -18.6 73 - SE 78 104 42 56 977.0 977.1 -
04/12:56am -15.4 -33.0 -19.6 70 - SE 74 95 40 51 977.4 - -
04/12:52am -14.9 -28.0 -20.2 64 - SE 50 82 27 44 977.6 - -
04/12:31am -15.6 -35.3 -19.2 74 - SE 85 104 46 56 976.1 - -
04/12:30am -15.7 -35.4 -19.1 75 - SE 85 102 46 55 976.5 - -
04/12:16am -15.2 -34.1 -22.0 56 - SE 80 98 43 53 976.4 - -
04/12:00am -15.1 -33.9 -21.1 60 - SE 80 95 43 51 976.5 - -
 
Date/Time
EST
Temp
°C
App
Temp
°C
Dew
Point
°C
Rel
Hum
%
Delta-T
°C
Wind Press
QNH
hPa
Press
MSL
hPa
Rain since
9am
mm
Dir  Spd
km/h
Gust
km/h
Spd
kts
Gust
kts
03/11:30pm -15.3 -35.5 -21.1 61 - SE 87 117 47 63 976.1 - -
03/11:05pm -15.7 -35.5 -21.3 62 - SE 85 104 46 56 976.0 - -
03/11:00pm -16.0 -36.1 -20.3 69 - SE 87 102 47 55 976.0 - -
03/10:30pm -16.3 -33.9 -20.0 73 - SE 74 100 40 54 976.8 - -
03/10:00pm -16.6 -35.0 -19.7 77 - SE 78 100 42 54 976.9 977.0 -
03/09:30pm -16.2 -35.1 -23.1 55 - SSE 80 98 43 53 976.8 - -
03/09:14pm -15.2 -33.7 -23.0 51 - SE 78 96 42 52 976.4 - -
03/09:00pm -16.0 -35.2 -21.9 60 - SE 82 98 44 53 975.9 - -
03/08:30pm -16.5 -36.3 -20.8 69 - SE 85 111 46 60 975.6 - -
03/08:00pm -16.5 -37.0 -19.7 76 - SE 89 119 48 64 975.4 - -
03/07:55pm -16.8 -38.7 -20.8 71 - SE 96 117 52 63 975.3 - -
03/07:54pm -16.5 -34.2 -20.7 70 - SE 74 117 40 63 974.8 - -
03/07:53pm -16.4 -31.6 -20.4 71 - SE 61 89 33 48 976.5 - -
03/07:30pm -16.4 -37.7 -21.2 66 - SE 93 115 50 62 974.8 - -
03/07:20pm -16.5 -37.8 -22.2 61 - SE 93 111 50 60 975.5 - -
03/07:00pm -16.6 -38.3 -22.1 62 - SE 95 109 51 59 975.3 975.4 -
03/06:31pm -16.7 -36.1 -21.4 67 - SE 83 102 45 55 975.9 - -
03/06:30pm -16.9 -36.3 -21.9 65 - SE 83 98 45 53 975.7 - -
03/06:05pm -16.7 -34.4 -20.9 70 - SE 74 95 40 51 976.0 - -
03/06:00pm -16.7 -34.7 -20.2 74 - SE 76 89 41 48 975.7 - -
03/05:30pm -17.6 -35.6 -20.1 81 - ESE 76 100 41 54 976.0 - -
03/05:24pm -17.4 -34.7 -20.0 80 - ESE 72 98 39 53 975.6 - -
03/05:23pm -17.3 -33.2 -20.0 79 - ESE 65 82 35 44 976.4 - -
03/05:08pm -17.5 -37.2 -20.4 78 - ESE 85 111 46 60 976.2 - -
03/05:07pm -17.6 -39.3 -20.6 77 - ESE 95 111 51 60 975.8 - -
03/05:00pm -17.5 -34.8 -21.8 69 - ESE 72 95 39 51 976.3 - -
03/04:32pm -16.6 -34.7 -23.3 56 - SE 76 95 41 51 975.3 - -
03/04:30pm -16.5 -35.0 -23.0 57 - SE 78 95 42 51 975.2 - -
03/04:00pm -16.5 -35.8 -23.8 53 - SE 82 102 44 55 975.2 975.3 -
03/03:30pm -16.7 -34.9 -24.9 49 - SE 76 96 41 52 976.0 - -
03/03:07pm -16.8 -35.0 -25.2 48 - SE 76 95 41 51 975.8 - -
03/03:00pm -16.7 -35.7 -25.8 45 - SE 80 93 43 50 975.8 - -
03/02:30pm -17.1 -36.7 -27.2 41 - SE 83 98 45 53 975.7 - -
03/02:00pm -16.6 -36.2 -27.8 37 - SE 83 102 45 55 975.4 - -
03/01:30pm -16.8 -35.4 -29.2 33 - SE 78 100 42 54 976.1 - -
03/01:08pm -16.6 -34.8 -28.1 36 - SE 76 95 41 51 976.1 - -
03/01:00pm -16.6 -34.5 -29.0 33 - SE 74 91 40 49 976.6 976.7 -
03/12:35pm -17.5 -35.4 -29.2 35 - SE 74 93 40 50 976.7 - -
03/12:30pm -17.6 -35.5 -29.3 35 - SE 74 87 40 47 977.0 - -
03/12:15pm -17.2 -34.1 -28.9 35 - SE 69 87 37 47 977.1 - -
03/12:00pm -17.1 -34.2 -28.9 35 - SE 70 85 38 46 976.9 - -
03/11:30am -17.0 -34.5 -29.7 32 - SE 72 95 39 51 977.0 - -
03/11:00am -16.8 -34.7 -30.2 30 - SE 74 93 40 50 976.9 - -
03/10:31am -16.6 -34.1 -30.0 30 - SE 72 91 39 49 976.9 - -
03/10:30am -16.6 -34.1 -30.4 29 - SE 72 85 39 46 976.8 - -
03/10:04am -16.4 -34.3 -31.0 27 - SE 74 95 40 51 976.6 - -
03/10:00am -16.4 -34.3 -30.6 28 - SE 74 89 40 48 976.4 976.5 -
03/09:42am -16.4 -34.7 -30.2 29 - SE 76 95 41 51 976.8 - -
03/09:30am -16.7 -35.4 -30.1 30 - SE 78 95 42 51 976.7 - -
03/09:06am -16.7 -35.7 -30.1 30 - SE 80 98 43 53 976.6 - -
03/09:00am -16.6 -35.6 -30.0 30 - SE 80 95 43 51 976.5 - -
03/08:30am -16.6 -34.5 -30.4 29 - SE 74 95 40 51 976.9 - -
03/08:15am -16.4 -33.9 -30.2 29 - SE 72 93 39 50 976.8 - -
03/08:00am -16.4 -33.5 -29.9 30 - SE 70 87 38 47 976.9 - -
03/07:45am -16.4 -33.3 -29.9 30 - SE 69 87 37 47 976.9 - -
03/07:30am -16.3 -34.2 -30.1 29 - SE 74 87 40 47 976.8 - -
03/07:00am -16.5 -34.4 -30.0 30 - SE 74 89 40 48 977.0 977.1 -
03/06:34am -16.6 -34.1 -30.0 30 - SE 72 91 39 49 977.3 - -
03/06:30am -16.6 -34.5 -29.7 31 - SE 74 91 40 49 977.3 - -
03/06:03am -16.7 -34.6 -29.8 31 - SE 74 93 40 50 977.5 - -
03/06:00am -16.7 -35.0 -29.8 31 - SE 76 93 41 50 977.5 - -
03/05:38am -16.9 -34.8 -29.3 33 - SE 74 98 40 53 977.3 - -
03/05:30am -16.9 -34.0 -29.3 33 - SE 70 83 38 45 977.5 - -
03/05:00am -16.6 -33.2 -29.7 31 - SE 67 83 36 45 977.4 - -
03/04:38am -16.4 -32.6 -29.5 31 - SE 65 83 35 45 977.6 - -
03/04:30am -16.5 -33.4 -29.6 31 - SE 69 82 37 44 977.8 - -
03/04:00am -17.0 -33.9 -29.4 33 - SE 69 87 37 47 977.7 977.8 -
03/03:59am -17.1 -34.0 -29.5 33 - SE 69 87 37 47 977.8 - -
03/03:30am -17.4 -32.4 -28.0 39 - SE 59 70 32 38 978.1 - -
03/03:00am -18.6 -33.6 -27.3 46 - SE 59 70 32 38 978.6 - -
03/02:30am -18.3 -34.1 -28.5 40 - SE 63 74 34 40 978.7 - -
03/02:00am -17.5 -32.9 -29.8 33 - SE 61 72 33 39 979.0 - -
03/01:30am -17.5 -34.4 -30.2 32 - SE 69 80 37 43 978.8 - -
03/01:00am -17.0 -33.9 -30.4 30 - SE 69 80 37 43 978.9 979.1 -
03/12:30am -17.1 -33.7 -29.8 32 - SE 67 83 36 45 979.1 - -
03/12:13am -16.9 -33.5 -30.0 31 - SE 67 85 36 46 978.9 - -
03/12:00am -16.9 -34.0 -29.6 32 - SE 70 85 38 46 978.8 - -
 
Date/Time
EST
Temp
°C
App
Temp
°C
Dew
Point
°C
Rel
Hum
%
Delta-T
°C
Wind Press
QNH
hPa
Press
MSL
hPa
Rain since
9am
mm
Dir  Spd
km/h
Gust
km/h
Spd
kts
Gust
kts
02/11:30pm -17.0 -34.9 -30.0 31 - SE 74 91 40 49 978.7 - -
02/11:00pm -17.8 -35.3 -29.8 34 - SE 72 85 39 46 978.5 - -
02/10:30pm -17.5 -34.6 -30.5 31 - SE 70 83 38 45 978.8 - -
02/10:00pm -18.1 -36.0 -30.4 33 - SE 74 89 40 48 978.8 979.0 -
02/09:30pm -17.6 -35.1 -30.9 30 - SE 72 85 39 46 979.1 - -
02/09:08pm -17.7 -34.3 -30.7 31 - SE 67 85 36 46 979.6 - -
02/09:00pm -17.3 -33.1 -30.7 30 - SE 63 74 34 40 979.8 - -
02/08:30pm -17.8 -33.6 -30.8 31 - SE 63 72 34 39 980.0 - -
02/08:00pm -18.8 -34.6 -29.8 37 - SE 63 72 34 39 980.3 - -
02/07:30pm -18.6 -31.9 -30.8 33 - SE 50 61 27 33 981.1 - -
02/07:00pm -19.6 -32.6 -31.4 34 - SE 48 56 26 30 982.1 982.3 -
02/06:30pm -19.9 -31.9 -31.1 36 - ESE 43 52 23 28 982.5 - -
02/06:00pm -20.6 -33.2 -31.1 39 - ESE 46 56 25 30 982.9 - -
02/05:30pm -21.7 -35.8 -31.4 41 - SE 54 61 29 33 983.0 - -
02/05:00pm -21.4 -36.1 -30.8 42 - SE 57 70 31 38 983.1 - -
02/04:30pm -20.2 -34.7 -31.3 36 - SE 56 67 30 36 983.0 - -
02/04:00pm -20.1 -34.6 -32.2 33 - SE 56 65 30 35 983.2 983.4 -
02/03:30pm -20.0 -33.0 -32.4 32 - SE 48 61 26 33 983.9 - -
02/03:00pm -20.1 -32.7 -32.2 33 - ESE 46 56 25 30 984.3 - -
02/02:30pm -20.2 -33.6 -32.6 32 - SE 50 61 27 33 984.6 - -
02/02:00pm -20.8 -35.3 -33.1 32 - SE 56 69 30 37 984.8 - -
02/01:44pm -20.2 -32.8 -32.9 31 - SE 46 69 25 37 985.0 - -
02/01:30pm -20.6 -32.3 -33.2 31 - SE 41 52 22 28 985.3 - -
02/01:00pm -21.5 -34.9 -33.4 33 - SE 50 57 27 31 985.6 985.8 -
02/12:50pm -21.2 -32.9 -33.1 33 - SE 41 46 22 25 986.1 - -
02/12:30pm -22.6 -37.7 -32.7 39 - SE 59 67 32 36 986.2 - -
02/12:00pm -21.9 -37.4 -32.9 36 - SE 61 67 33 36 986.1 - -
02/11:30am -21.5 -34.9 -33.7 32 - SE 50 61 27 33 986.5 - -
02/11:00am -22.4 -38.3 -33.6 35 - SE 63 70 34 38 986.5 - -
02/10:30am -22.0 -37.1 -34.2 32 - SE 59 69 32 37 986.7 - -
02/10:00am -21.3 -34.3 -33.5 32 - SE 48 61 26 33 986.9 987.1 -
02/09:30am -21.1 -33.3 -34.0 30 - SE 44 57 24 31 987.1 - -
02/09:12am -21.6 -33.6 -33.2 34 - SSE 43 61 23 33 987.3 - -
02/09:00am -21.5 -33.7 -33.4 33 - SSE 44 57 24 31 987.2 - -
02/08:30am -21.9 -35.7 -33.5 34 - SSE 52 63 28 34 987.3 - -
02/08:00am -21.7 -35.8 -33.6 33 - SSE 54 63 29 34 987.2 - -
02/07:30am -21.7 -36.4 -33.3 34 - SSE 57 65 31 35 986.9 - -
02/07:00am -21.6 -35.0 -33.5 33 - SSE 50 61 27 33 987.2 987.4 -
02/06:30am -22.0 -35.4 -33.5 35 - SSE 50 59 27 32 987.4 - -
02/06:00am -22.1 -35.1 -33.3 36 - SSE 48 57 26 31 987.5 - -
02/05:30am -22.7 -35.7 -34.2 34 - SSE 48 59 26 32 987.4 - -
02/05:00am -22.8 -36.6 -34.3 34 - SSE 52 63 28 34 987.5 - -
02/04:30am -22.7 -35.7 -33.9 35 - SSE 48 57 26 31 987.4 - -
02/04:00am -23.0 -36.8 -34.2 35 - SSE 52 61 28 33 987.5 987.7 -
02/03:30am -23.0 -35.6 -34.2 35 - SSE 46 56 25 30 987.5 - -
02/03:02am -23.1 -34.8 -34.2 36 - SSE 41 59 22 32 987.5 - -
02/03:00am -22.9 -34.2 -33.8 36 - SSE 39 52 21 28 987.5 - -
02/02:51am -23.0 -33.9 -33.3 38 - SE 37 56 20 30 987.6 - -
02/02:30am -23.1 -34.8 -34.2 36 - SSE 41 54 22 29 987.3 - -
02/02:00am -23.0 -35.6 -33.9 36 - SSE 46 56 25 30 987.2 - -
02/01:30am -23.2 -36.6 -33.8 37 - SSE 50 57 27 31 987.0 - -
02/01:00am -23.5 -36.9 -34.0 38 - SSE 50 59 27 32 987.0 987.2 -
02/12:30am -23.1 -36.1 -33.7 37 - SSE 48 56 26 30 987.1 - -
02/12:00am -23.4 -36.8 -34.0 37 - SSE 50 57 27 31 987.0 - -
 
Date/Time
EST
Temp
°C
App
Temp
°C
Dew
Point
°C
Rel
Hum
%
Delta-T
°C
Wind Press
QNH
hPa
Press
MSL
hPa
Rain since
9am
mm
Dir  Spd
km/h
Gust
km/h
Spd
kts
Gust
kts
01/11:30pm -23.9 -38.0 -34.4 37 - SSE 54 59 29 32 986.8 - -

Other formats

Comma delimited format used in spreadsheet applications
http://www.bom.gov.au/fwo/IDT60803/IDT60803.89564.axf

JavaScript Object Notation format (JSON) in row-major order
http://www.bom.gov.au/fwo/IDT60803/IDT60803.89564.json

Data quality

Most of these data are generated automatically and are frequently updated. Quality checks on data are not normally performed. It is possible for incorrect values to appear. Refer to information at About Latest Weather Observations and please check the disclaimer before using these data.